Time;durP1;ratioP1;P1;durP2;ratioP2;P2;SDS_P1;SDS_P2;PMS_P1;PMS_P2;Temp;Humidity;BMP_temperature;BMP_pressure;BME280_temperature;BME280_humidity;BME280_pressure;Samples;Min_cycle;Max_cycle;Signal;HPM_P1;HPM_P2
2022/05/03 00:00:36;;;;;;;22.48;8.05;;;;;;;9.56;73.32;101765.19;4961475;28;20126;-65
2022/05/03 00:03:11;;;;;;;19.33;7.65;;;;;;;9.43;73.58;101757.84;4964568;28;20031;-64
2022/05/03 00:05:45;;;;;;;19.85;8.10;;;;;;;9.37;73.81;101760.34;4960467;28;20044;-65
2022/05/03 00:08:34;;;;;;;19.20;7.75;;;;;;;9.43;73.97;101758.72;4963581;28;20541;-64
2022/05/03 00:11:11;;;;;;;19.88;7.55;;;;;;;9.36;74.92;101763.84;4964077;28;20163;-64
2022/05/03 00:13:47;;;;;;;19.10;7.85;;;;;;;9.31;74.66;101762.84;4962757;28;20398;-65
2022/05/03 00:16:15;;;;;;;19.50;7.70;;;;;;;9.40;74.78;101760.44;4964277;28;20164;-64
2022/05/03 00:18:41;;;;;;;18.67;7.68;;;;;;;9.24;75.63;101746.84;5041872;28;20083;-65
2022/05/03 00:21:08;;;;;;;20.45;7.75;;;;;;;9.23;75.86;101754.72;5037304;28;20092;-65
2022/05/03 00:23:34;;;;;;;19.45;7.95;;;;;;;9.14;76.00;101749.25;5041553;28;20538;-64
2022/05/03 00:26:00;;;;;;;19.52;7.50;;;;;;;9.13;76.24;101751.00;5085525;28;20032;-65
2022/05/03 00:28:27;;;;;;;19.02;7.55;;;;;;;8.96;78.34;101745.28;5101709;28;20461;-64
2022/05/03 00:30:53;;;;;;;19.38;7.65;;;;;;;8.96;78.60;101749.69;5102461;28;20085;-65
2022/05/03 00:33:20;;;;;;;19.67;7.50;;;;;;;8.88;79.24;101755.66;5102475;28;20028;-64
2022/05/03 00:35:45;;;;;;;18.77;7.40;;;;;;;8.91;78.91;101746.91;5102826;28;20051;-64
2022/05/03 00:38:11;;;;;;;21.00;7.65;;;;;;;8.86;79.10;101743.28;5106858;28;20463;-65
2022/05/03 00:40:44;;;;;;;20.30;7.65;;;;;;;8.88;79.58;101749.47;5104328;28;20121;-64
2022/05/03 00:43:23;;;;;;;20.85;8.27;;;;;;;8.87;79.13;101750.34;5104539;28;20027;-64
2022/05/03 00:46:05;;;;;;;21.33;8.13;;;;;;;8.86;78.63;101745.91;5105832;28;20030;-63
2022/05/03 00:48:55;;;;;;;21.20;7.97;;;;;;;8.77;79.24;101745.69;5107156;28;20513;-64
2022/05/03 00:51:54;;;;;;;20.83;7.93;;;;;;;8.80;78.14;101745.75;5105845;28;20475;-64
2022/05/03 00:55:05;;;;;;;19.88;7.70;;;;;;;8.67;78.00;101753.31;5106055;28;20024;-64
2022/05/03 00:57:52;;;;;;;19.00;7.68;;;;;;;8.59;80.64;101752.25;5061102;28;20037;-64
2022/05/03 01:00:20;;;;;;;20.02;7.90;;;;;;;8.54;81.15;101748.59;5064407;28;20037;-64
2022/05/03 01:03:11;;;;;;;19.90;7.72;;;;;;;8.58;79.83;101753.09;5064310;28;20115;-64
2022/05/03 01:05:42;;;;;;;20.10;8.23;;;;;;;8.52;81.29;101750.31;5064437;28;20115;-65
2022/05/03 01:08:20;;;;;;;21.65;8.50;;;;;;;8.41;82.21;101754.34;5063898;28;20139;-64
2022/05/03 01:10:59;;;;;;;19.23;7.95;;;;;;;8.38;83.13;101752.50;5062903;28;20034;-64
2022/05/03 01:13:36;;;;;;;19.92;7.80;;;;;;;8.40;83.50;101752.56;5061538;28;20086;-64
2022/05/03 01:16:05;;;;;;;20.08;7.82;;;;;;;8.22;84.84;101753.81;5060985;28;20036;-65
2022/05/03 01:18:37;;;;;;;20.00;8.50;;;;;;;8.20;85.30;101745.00;5060896;28;20029;-64
2022/05/03 01:21:07;;;;;;;19.08;7.40;;;;;;;8.21;86.21;101746.75;5067828;28;20145;-64
2022/05/03 01:24:32;;;;;;;19.83;8.60;;;;;;;8.09;85.55;101743.78;5061698;28;20029;-64
2022/05/03 01:27:31;;;;;;;19.55;8.15;;;;;;;8.01;87.15;101744.47;4985625;28;20034;-64
2022/05/03 01:29:59;;;;;;;19.83;8.35;;;;;;;7.90;89.56;101740.59;4985083;28;20108;-64
2022/05/03 01:32:24;;;;;;;19.48;8.05;;;;;;;8.01;88.66;101739.19;5000847;28;20080;-64
2022/05/03 01:34:52;;;;;;;20.67;8.35;;;;;;;8.01;88.93;101733.03;5024140;28;20042;-65
2022/05/03 01:37:18;;;;;;;20.40;8.25;;;;;;;7.84;89.74;101737.81;5021495;28;20037;-64
2022/05/03 01:40:20;;;;;;;19.55;8.25;;;;;;;7.79;90.50;101737.66;5022710;28;20041;-63
2022/05/03 01:43:11;;;;;;;20.48;8.32;;;;;;;7.67;90.48;101734.66;5024904;28;20029;-64
2022/05/03 01:45:41;;;;;;;19.98;8.50;;;;;;;7.58;92.40;101735.25;5024794;28;20381;-64
2022/05/03 01:51:24;;;;;;;20.58;8.48;;;;;;;7.61;92.91;101737.97;5024364;28;20512;-67
2022/05/03 01:54:16;;;;;;;20.58;8.25;;;;;;;7.64;92.64;101737.19;5020963;28;20139;-67
2022/05/03 01:56:56;;;;;;;19.92;8.27;;;;;;;7.65;91.73;101737.22;4981520;28;20033;-66
2022/05/03 01:59:31;;;;;;;20.50;8.18;;;;;;;7.62;92.32;101731.00;4985853;28;20039;-68
2022/05/03 02:01:59;;;;;;;20.30;8.05;;;;;;;7.57;93.02;101729.94;5063543;28;20037;-68
2022/05/03 02:04:43;;;;;;;21.40;8.30;;;;;;;7.57;92.62;101735.22;5062798;28;20029;-65
2022/05/03 02:07:29;;;;;;;21.73;7.95;;;;;;;7.36;93.79;101730.19;5063957;28;20044;-65
2022/05/03 02:10:06;;;;;;;20.17;8.27;;;;;;;7.37;93.97;101731.94;5060463;28;20025;-65
2022/05/03 02:12:33;;;;;;;19.13;7.90;;;;;;;7.24;94.66;101731.56;5061571;28;20036;-68
2022/05/03 02:15:05;;;;;;;20.20;8.10;;;;;;;7.28;95.25;101733.47;5063961;28;20123;-68
2022/05/03 02:17:54;;;;;;;21.15;8.52;;;;;;;7.25;95.50;101725.50;5061074;28;20033;-67
2022/05/03 02:20:41;;;;;;;18.88;7.90;;;;;;;7.27;94.92;101725.53;5055801;28;20037;-66
2022/05/03 02:23:30;;;;;;;19.85;8.25;;;;;;;7.13;96.62;101732.97;5063159;28;20028;-67
2022/05/03 02:26:47;;;;;;;18.45;7.68;;;;;;;7.10;95.87;101730.25;5057015;28;20029;-65
2022/05/03 02:29:18;;;;;;;20.77;8.05;;;;;;;7.06;96.37;101733.59;5027355;28;20040;-64
2022/05/03 02:31:49;;;;;;;19.75;8.07;;;;;;;6.95;96.69;101731.50;5027689;28;20033;-67
2022/05/03 02:34:45;;;;;;;19.90;8.10;;;;;;;7.03;95.80;101731.75;5035485;28;20488;-65
2022/05/03 02:37:21;;;;;;;19.48;8.18;;;;;;;7.05;95.60;101732.72;5059258;28;20072;-66
2022/05/03 02:39:50;;;;;;;19.85;8.38;;;;;;;7.01;96.83;101727.31;5059746;28;20037;-63
2022/05/03 02:42:16;;;;;;;19.98;7.80;;;;;;;7.01;96.42;101724.69;5062420;28;20032;-66
2022/05/03 02:44:43;;;;;;;20.02;8.40;;;;;;;6.84;96.89;101724.13;5059267;28;20041;-65
2022/05/03 02:47:13;;;;;;;19.90;8.23;;;;;;;6.82;97.14;101724.06;5062436;28;20483;-67
2022/05/03 02:49:52;;;;;;;19.75;8.40;;;;;;;6.71;98.11;101728.94;5059508;28;20087;-65
2022/05/03 02:52:59;;;;;;;20.17;8.40;;;;;;;6.73;97.22;101736.91;5062217;28;20039;-66
2022/05/03 02:55:50;;;;;;;19.80;8.25;;;;;;;6.68;97.64;101728.84;4986440;28;20069;-65
2022/05/03 02:58:31;;;;;;;20.33;8.38;;;;;;;6.49;99.55;101737.81;4986967;28;20046;-67
2022/05/03 03:04:02;;;;;;;20.17;8.38;;;;;;;6.40;100.00;101733.13;4990671;28;20120;-65
2022/05/03 03:06:33;;;;;;;20.50;8.20;;;;;;;6.47;100.00;101738.63;5029772;28;20160;-66
2022/05/03 03:09:00;;;;;;;19.90;8.70;;;;;;;6.52;100.00;101735.28;5030905;28;20480;-68
2022/05/03 03:11:41;;;;;;;19.83;8.10;;;;;;;6.54;99.82;101731.00;5030616;28;20087;-66
2022/05/03 03:14:10;;;;;;;20.10;8.50;;;;;;;6.53;99.83;101731.84;5030578;28;20030;-67
2022/05/03 03:16:49;;;;;;;19.70;8.32;;;;;;;6.57;99.95;101733.72;5030507;28;20029;-65
2022/05/03 03:19:36;;;;;;;20.50;8.38;;;;;;;6.55;98.72;101732.81;5027725;28;20080;-65
2022/05/03 03:22:02;;;;;;;19.65;8.23;;;;;;;6.49;99.43;101735.19;5029316;28;20041;-67
2022/05/03 03:24:34;;;;;;;19.27;8.48;;;;;;;6.54;99.46;101733.63;5030438;28;20036;-66
2022/05/03 03:27:02;;;;;;;20.40;8.60;;;;;;;6.43;99.55;101727.97;5026496;28;20029;-66
2022/05/03 03:29:31;;;;;;;21.13;8.18;;;;;;;6.41;100.00;101734.03;5030180;28;20087;-67
2022/05/03 03:31:59;;;;;;;20.60;8.20;;;;;;;6.44;99.59;101734.16;5060996;28;20168;-66
2022/05/03 03:34:25;;;;;;;20.35;8.70;;;;;;;6.39;100.00;101727.81;5101727;28;20024;-68
2022/05/03 03:37:01;;;;;;;21.17;8.38;;;;;;;6.39;100.00;101740.97;5103674;28;20031;-67
2022/05/03 03:39:30;;;;;;;21.75;8.77;;;;;;;6.31;100.00;101727.56;5101467;28;20394;-67
2022/05/03 03:42:00;;;;;;;19.35;8.15;;;;;;;6.23;100.00;101732.53;5104192;28;20394;-63
2022/05/03 03:44:26;;;;;;;20.45;8.65;;;;;;;6.27;100.00;101731.78;5101348;28;20024;-63
2022/05/03 03:46:51;;;;;;;20.33;8.60;;;;;;;6.18;100.00;101725.34;5103651;28;20019;-64
2022/05/03 03:49:16;;;;;;;21.05;8.63;;;;;;;6.12;100.00;101728.63;5102482;28;20130;-64
2022/05/03 03:51:43;;;;;;;21.70;8.93;;;;;;;6.22;100.00;101728.13;5102098;28;20425;-63
2022/05/03 03:54:09;;;;;;;20.15;8.52;;;;;;;6.23;100.00;101729.00;5103910;28;20047;-64
2022/05/03 03:56:35;;;;;;;19.95;8.52;;;;;;;6.25;100.00;101727.34;5100992;28;20032;-63
2022/05/03 03:59:01;;;;;;;20.38;8.60;;;;;;;6.21;100.00;101734.19;5104412;28;20028;-63
2022/05/03 04:01:27;;;;;;;20.35;8.90;;;;;;;6.23;100.00;101731.63;5101439;28;20463;-64
2022/05/03 04:03:53;;;;;;;21.45;9.30;;;;;;;6.15;100.00;101725.22;5101000;28;20028;-64
2022/05/03 04:06:19;;;;;;;21.00;9.18;;;;;;;6.15;100.00;101736.63;5103892;28;20032;-64
2022/05/03 04:08:44;;;;;;;21.10;9.23;;;;;;;6.12;100.00;101728.63;5102351;28;20064;-64
2022/05/03 04:11:16;;;;;;;22.83;9.50;;;;;;;6.02;100.00;101732.63;5104146;28;20024;-64
2022/05/03 04:13:45;;;;;;;20.95;9.32;;;;;;;6.00;100.00;101725.53;5106612;28;20053;-64
2022/05/03 04:16:11;;;;;;;20.92;9.95;;;;;;;5.90;100.00;101726.91;5106351;28;20028;-63
2022/05/03 04:18:46;;;;;;;21.35;9.15;;;;;;;5.86;100.00;101725.88;5107640;28;20378;-64
2022/05/03 04:21:13;;;;;;;21.05;9.00;;;;;;;5.76;100.00;101731.63;5107992;28;20028;-67
2022/05/03 04:23:38;;;;;;;22.55;9.65;;;;;;;5.68;100.00;101730.41;5106589;28;20020;-68
2022/05/03 04:26:04;;;;;;;23.10;10.10;;;;;;;5.63;100.00;101729.38;5106617;28;20031;-66
2022/05/03 04:28:29;;;;;;;21.17;10.00;;;;;;;5.54;100.00;101730.78;5105188;28;20032;-65
2022/05/03 04:30:54;;;;;;;21.60;9.77;;;;;;;5.55;100.00;101732.59;5107681;28;20023;-66
2022/05/03 04:33:20;;;;;;;21.92;9.60;;;;;;;5.48;100.00;101729.69;5104505;28;20020;-66
2022/05/03 04:35:45;;;;;;;21.48;9.52;;;;;;;5.58;100.00;101732.69;5107202;28;20038;-64
2022/05/03 04:38:10;;;;;;;21.40;9.55;;;;;;;5.61;100.00;101742.44;5105198;28;20027;-65
2022/05/03 04:40:36;;;;;;;24.05;9.40;;;;;;;5.66;100.00;101732.09;5106220;28;20031;-68
2022/05/03 04:43:01;;;;;;;23.58;9.60;;;;;;;5.75;100.00;101745.56;5106624;28;20023;-65
2022/05/03 04:45:26;;;;;;;24.83;10.18;;;;;;;5.64;100.00;101742.53;5103464;28;20059;-67
2022/05/03 04:47:51;;;;;;;21.15;9.43;;;;;;;5.67;100.00;101742.66;5107369;28;20140;-66
2022/05/03 04:50:17;;;;;;;24.10;10.00;;;;;;;5.56;100.00;101743.97;5104454;28;20107;-67
2022/05/03 04:52:42;;;;;;;23.35;9.60;;;;;;;5.68;100.00;101746.16;5106899;28;20220;-63
2022/05/03 04:55:08;;;;;;;23.13;9.63;;;;;;;5.70;100.00;101747.13;5105523;28;20050;-65
2022/05/03 04:57:34;;;;;;;24.02;10.18;;;;;;;5.72;100.00;101750.69;5109006;28;20020;-63
2022/05/03 05:00:00;;;;;;;29.90;11.30;;;;;;;5.76;100.00;101755.25;5106412;28;20015;-64
2022/05/03 05:02:25;;;;;;;22.70;10.32;;;;;;;5.89;100.00;101749.63;5104072;28;20028;-63
2022/05/03 05:04:51;;;;;;;25.48;10.18;;;;;;;5.85;100.00;101760.81;5106631;28;20481;-68
2022/05/03 05:07:16;;;;;;;27.38;10.77;;;;;;;5.85;100.00;101766.06;5103872;28;20028;-66
2022/05/03 05:10:23;;;;;;;24.63;10.38;;;;;;;5.90;100.00;101758.41;5107261;28;20433;-67
2022/05/03 05:12:28;;;;;;;23.13;10.10;;;;;;;5.90;100.00;101759.28;5104959;28;20028;-67
2022/05/03 05:14:54;;;;;;;24.00;10.40;;;;;;;5.96;100.00;101765.63;5106156;28;20080;-66
2022/05/03 05:17:19;;;;;;;24.20;10.45;;;;;;;6.00;100.00;101760.56;5103812;28;20028;-68
2022/05/03 05:19:44;;;;;;;21.60;10.60;;;;;;;6.18;100.00;101756.84;5106755;28;20122;-65
2022/05/03 05:22:09;;;;;;;23.23;10.60;;;;;;;6.21;100.00;101762.19;5106605;27;20023;-66
2022/05/03 05:24:35;;;;;;;23.65;10.32;;;;;;;6.24;100.00;101763.19;5111041;28;20063;-69
2022/05/03 05:27:00;;;;;;;21.90;10.35;;;;;;;6.35;100.00;101765.31;5114223;28;20054;-66
2022/05/03 05:29:25;;;;;;;22.85;11.02;;;;;;;6.36;100.00;101768.00;5114377;28;20467;-66
2022/05/03 05:31:51;;;;;;;27.23;11.52;;;;;;;6.40;100.00;101769.03;5114573;28;20023;-67
2022/05/03 05:34:16;;;;;;;22.63;10.73;;;;;;;6.50;100.00;101773.75;5113848;28;20270;-69
2022/05/03 05:36:42;;;;;;;23.60;11.00;;;;;;;6.51;100.00;101786.06;5114191;28;20031;-66
2022/05/03 05:39:07;;;;;;;26.48;11.43;;;;;;;6.56;100.00;101786.22;5113429;28;20039;-66
2022/05/03 05:41:33;;;;;;;22.15;10.88;;;;;;;6.64;100.00;101787.41;5114053;28;20492;-65
2022/05/03 05:43:58;;;;;;;23.05;10.90;;;;;;;6.65;100.00;101791.78;5113705;28;20483;-69
2022/05/03 05:46:23;;;;;;;22.42;10.77;;;;;;;6.76;100.00;101792.19;5113211;28;20035;-70
2022/05/03 05:48:49;;;;;;;22.02;10.68;;;;;;;6.81;100.00;101790.59;5112660;28;20044;-67
2022/05/03 05:51:15;;;;;;;23.65;11.32;;;;;;;6.86;100.00;101791.66;5112123;28;20030;-68
2022/05/03 05:53:40;;;;;;;22.38;11.23;;;;;;;6.91;100.00;101786.56;5114114;28;20370;-67
2022/05/03 05:56:07;;;;;;;23.35;11.27;;;;;;;6.97;100.00;101787.69;5112746;28;20081;-66
2022/05/03 05:58:32;;;;;;;23.38;11.02;;;;;;;6.98;100.00;101786.81;5113503;28;20020;-66
2022/05/03 06:00:58;;;;;;;22.90;10.98;;;;;;;7.06;100.00;101784.47;5114155;28;20056;-68
2022/05/03 06:03:25;;;;;;;22.25;11.13;;;;;;;7.09;100.00;101787.19;5111993;28;20042;-67
2022/05/03 06:05:51;;;;;;;22.27;10.75;;;;;;;7.09;100.00;101788.91;5113443;28;20024;-67
2022/05/03 06:08:17;;;;;;;22.77;11.20;;;;;;;7.19;100.00;101791.00;5112669;28;20031;-71
2022/05/03 06:10:42;;;;;;;22.42;11.10;;;;;;;7.23;100.00;101781.50;5112934;28;20099;-66
2022/05/03 06:13:09;;;;;;;23.15;10.98;;;;;;;7.29;100.00;101793.09;5113042;28;20047;-69
2022/05/03 06:15:35;;;;;;;22.92;11.00;;;;;;;7.30;100.00;101794.91;5113259;28;20026;-68
2022/05/03 06:18:01;;;;;;;22.55;11.50;;;;;;;7.37;100.00;101800.34;5113160;28;20027;-64
2022/05/03 06:20:26;;;;;;;24.65;11.50;;;;;;;7.44;100.00;101791.81;5113238;28;20035;-69
2022/05/03 06:22:52;;;;;;;22.70;11.05;;;;;;;7.52;100.00;101795.59;5104427;27;20447;-69
2022/05/03 06:25:17;;;;;;;24.88;11.30;;;;;;;7.62;100.00;101795.03;5109795;28;20031;-66
2022/05/03 06:27:43;;;;;;;23.25;11.60;;;;;;;7.70;100.00;101797.03;5112656;28;20023;-68
2022/05/03 06:30:08;;;;;;;22.50;10.68;;;;;;;7.83;100.00;101797.47;5112640;28;20374;-69
2022/05/03 06:32:35;;;;;;;22.77;11.85;;;;;;;7.93;100.00;101798.63;5112450;28;20458;-68
2022/05/03 06:35:01;;;;;;;25.40;11.98;;;;;;;8.07;98.92;101798.13;5112309;28;20030;-70
2022/05/03 06:37:26;;;;;;;22.60;11.38;;;;;;;8.13;94.21;101793.06;5113023;28;20019;-67
2022/05/03 06:39:51;;;;;;;22.65;11.07;;;;;;;8.24;92.61;101791.63;5113164;28;20027;-71
2022/05/03 06:42:17;;;;;;;23.95;10.77;;;;;;;8.33;90.45;101793.63;5113079;28;20406;-68
2022/05/03 06:44:42;;;;;;;23.25;10.95;;;;;;;8.49;89.61;101790.63;5112174;28;20030;-67
2022/05/03 06:47:08;;;;;;;22.35;10.82;;;;;;;8.60;88.13;101790.03;5112443;28;20032;-67
2022/05/03 06:49:34;;;;;;;21.77;10.70;;;;;;;8.70;86.80;101789.44;5112009;28;20564;-66
2022/05/03 06:51:59;;;;;;;20.60;9.20;;;;;;;8.80;81.34;101799.38;5112485;28;20028;-66
2022/05/03 06:54:25;;;;;;;22.65;9.60;;;;;;;8.90;79.26;101808.44;5112341;28;20107;-67
2022/05/03 06:56:51;;;;;;;21.27;9.85;;;;;;;9.00;78.33;101805.19;5111935;28;20030;-67
2022/05/03 06:59:16;;;;;;;20.55;9.27;;;;;;;9.10;75.69;101803.69;5112542;28;20081;-68
2022/05/03 07:01:42;;;;;;;21.73;8.90;;;;;;;9.21;71.78;101801.31;5112015;28;20019;-69
2022/05/03 07:04:07;;;;;;;20.58;8.82;;;;;;;9.32;72.02;101806.84;5112534;28;20024;-65
2022/05/03 07:06:33;;;;;;;19.92;8.15;;;;;;;9.43;68.21;101816.78;5111976;28;20106;-67
2022/05/03 07:08:58;;;;;;;20.13;7.50;;;;;;;9.49;62.10;101809.91;5112486;28;20024;-65
2022/05/03 07:11:23;;;;;;;19.55;7.03;;;;;;;9.56;60.82;101812.72;5112487;28;20377;-67
2022/05/03 07:13:49;;;;;;;19.27;7.45;;;;;;;9.67;61.76;101815.63;5112070;28;20026;-68
2022/05/03 07:16:14;;;;;;;17.98;6.50;;;;;;;9.72;56.82;101813.09;5111670;28;20436;-68
2022/05/03 07:24:07;;;;;;;19.85;6.75;;;;;;;9.91;57.41;101810.00;5111173;28;20392;-69
2022/05/03 07:26:33;;;;;;;19.70;6.72;;;;;;;9.99;54.40;101809.28;5111396;28;20020;-68
2022/05/03 07:28:58;;;;;;;19.08;6.30;;;;;;;10.03;53.17;101813.78;5111848;28;20389;-68
2022/05/03 07:31:24;;;;;;;17.13;5.55;;;;;;;10.07;52.18;101816.50;5112760;28;20031;-70
2022/05/03 07:33:49;;;;;;;17.25;5.90;;;;;;;10.15;50.90;101821.97;5112125;28;20442;-68
2022/05/03 07:36:17;;;;;;;17.42;5.95;;;;;;;10.20;52.07;101816.78;5110963;28;20088;-70
2022/05/03 07:38:43;;;;;;;17.88;5.93;;;;;;;10.25;50.30;101823.06;5112076;28;20024;-70
2022/05/03 07:41:08;;;;;;;18.17;5.80;;;;;;;10.31;50.81;101823.19;5111797;28;20031;-69
2022/05/03 07:43:34;;;;;;;17.83;5.68;;;;;;;10.43;50.74;101826.13;5111430;28;20095;-67
2022/05/03 07:46:01;;;;;;;17.23;5.60;;;;;;;10.50;49.38;101826.22;5113211;28;20049;-64
2022/05/03 07:48:26;;;;;;;18.17;6.03;;;;;;;10.60;49.24;101820.28;5115818;28;20105;-63
2022/05/03 07:50:52;;;;;;;18.00;5.72;;;;;;;10.69;49.39;101823.13;5115746;28;20035;-65
2022/05/03 07:53:17;;;;;;;17.08;5.88;;;;;;;10.74;48.79;101826.72;5116024;28;20024;-64
2022/05/03 07:55:47;;;;;;;16.67;5.80;;;;;;;10.84;48.33;101816.34;5107712;28;20031;-64
2022/05/03 07:58:13;;;;;;;18.17;6.00;;;;;;;10.96;48.61;101820.06;5105600;28;20032;-66
2022/05/03 08:00:39;;;;;;;17.60;6.05;;;;;;;11.11;48.26;101806.25;5105197;28;20020;-64
2022/05/03 08:03:04;;;;;;;17.55;5.78;;;;;;;11.26;49.29;101813.56;5106803;28;20072;-64
2022/05/03 08:05:30;;;;;;;19.35;5.97;;;;;;;11.44;48.21;101810.31;5105581;28;20035;-64
2022/05/03 08:07:55;;;;;;;18.20;5.90;;;;;;;11.62;47.27;101809.72;5108329;28;20039;-64
2022/05/03 08:10:20;;;;;;;19.02;6.30;;;;;;;11.74;46.27;101818.75;5104628;28;20538;-65
2022/05/03 08:12:50;;;;;;;18.42;6.20;;;;;;;11.85;47.26;101807.44;5107557;28;20024;-68
2022/05/03 08:15:17;;;;;;;20.00;6.68;;;;;;;12.08;47.57;101814.81;5105385;28;20024;-66
2022/05/03 08:17:42;;;;;;;19.85;6.40;;;;;;;12.61;45.56;101812.81;5107000;28;20028;-64
2022/05/03 08:20:08;;;;;;;18.92;6.60;;;;;;;13.62;44.57;101812.91;5106384;28;20022;-67
2022/05/03 08:22:34;;;;;;;18.58;6.75;;;;;;;14.58;42.16;101821.38;5104845;28;20386;-65
2022/05/03 08:25:00;;;;;;;18.83;6.63;;;;;;;15.57;40.59;101821.53;5105585;28;20024;-65
2022/05/03 08:27:25;;;;;;;18.40;6.50;;;;;;;16.16;38.27;101823.22;5104588;28;20028;-66
2022/05/03 08:29:51;;;;;;;20.33;6.90;;;;;;;16.67;36.71;101828.34;5107876;28;20039;-66
2022/05/03 08:32:16;;;;;;;19.15;7.10;;;;;;;17.43;36.47;101820.69;5104416;28;20039;-64
2022/05/03 08:34:41;;;;;;;18.60;7.18;;;;;;;17.71;35.70;101820.44;5106995;28;20020;-64
2022/05/03 08:42:34;;;;;;;20.38;7.47;;;;;;;17.88;35.67;101830.06;5106175;28;20089;-64
2022/05/03 08:45:01;;;;;;;19.38;7.80;;;;;;;18.08;35.15;101825.41;5106757;28;20049;-64
2022/05/03 08:47:30;;;;;;;18.73;7.53;;;;;;;18.79;34.24;101826.31;5104210;28;20039;-64
2022/05/03 08:50:08;;;;;;;21.85;7.53;;;;;;;19.24;35.07;101823.88;5107505;28;20035;-65
2022/05/03 08:52:57;;;;;;;19.65;7.97;;;;;;;19.56;33.18;101819.75;5108327;28;20370;-65
2022/05/03 08:55:23;;;;;;;21.60;8.20;;;;;;;19.48;34.58;101824.34;5113961;28;20024;-65
2022/05/03 08:57:49;;;;;;;20.13;7.97;;;;;;;19.49;33.58;101827.00;5114362;28;20068;-68
2022/05/03 09:00:16;;;;;;;19.50;7.82;;;;;;;19.56;33.49;101824.25;5111803;28;20019;-67
2022/05/03 09:02:49;;;;;;;19.63;7.68;;;;;;;19.66;34.46;101820.47;5114072;28;20389;-68
2022/05/03 09:05:15;;;;;;;19.65;7.88;;;;;;;19.29;34.55;101827.34;5111594;28;20098;-70
2022/05/03 09:07:52;;;;;;;19.08;8.18;;;;;;;18.76;35.46;101821.00;5114522;28;20035;-71
2022/05/03 09:10:29;;;;;;;19.65;7.70;;;;;;;18.02;37.45;101817.47;5111957;28;20074;-68
2022/05/03 09:12:57;;;;;;;21.70;8.50;;;;;;;17.66;37.87;101814.22;5112942;28;20024;-68
2022/05/03 09:15:33;;;;;;;20.20;8.20;;;;;;;18.49;37.89;101817.78;5114780;28;20408;-70
2022/05/03 09:18:00;;;;;;;19.25;7.60;;;;;;;19.31;35.70;101824.66;5111259;28;20111;-68
2022/05/03 09:26:11;;;;;;;20.30;7.97;;;;;;;21.77;32.60;101825.69;5111596;28;20038;-70
2022/05/03 09:28:44;;;;;;;19.27;7.68;;;;;;;21.77;32.78;101820.31;5112077;28;20036;-68
2022/05/03 09:31:09;;;;;;;19.10;7.65;;;;;;;22.49;30.98;101821.91;5112794;28;20426;-67
2022/05/03 09:33:36;;;;;;;18.23;7.35;;;;;;;22.91;30.68;101829.59;5108481;28;20310;-69
2022/05/03 09:36:09;;;;;;;19.00;7.47;;;;;;;23.54;29.87;101823.94;5106057;28;20085;-71
2022/05/03 09:38:47;;;;;;;19.20;7.80;;;;;;;23.66;29.87;101828.88;5111250;28;20027;-69
2022/05/03 09:41:14;;;;;;;28.63;8.50;;;;;;;24.02;28.96;101821.31;5112124;28;20023;-69
2022/05/03 09:43:59;;;;;;;19.35;7.45;;;;;;;24.77;29.07;101823.94;5112743;28;20524;-72
2022/05/03 09:46:25;;;;;;;18.98;7.63;;;;;;;24.83;28.02;101818.31;5108994;28;20389;-68
2022/05/03 09:48:51;;;;;;;21.75;7.80;;;;;;;24.82;28.09;101822.81;5113376;28;20114;-70
2022/05/03 09:51:16;;;;;;;20.35;8.07;;;;;;;24.93;27.14;101819.69;5108960;28;20035;-69
2022/05/03 09:53:41;;;;;;;18.60;7.00;;;;;;;25.10;27.32;101815.41;5104340;28;20470;-73
2022/05/03 09:56:11;;;;;;;20.05;7.60;;;;;;;25.58;27.23;101817.00;5107489;28;20020;-71
2022/05/03 09:58:38;;;;;;;19.95;7.65;;;;;;;26.04;26.95;101824.94;5108698;28;20497;-68
2022/05/03 10:01:04;;;;;;;18.92;7.78;;;;;;;26.40;25.23;101814.22;5112250;28;20028;-69
2022/05/03 10:03:31;;;;;;;19.52;7.95;;;;;;;26.21;26.08;101821.44;5111142;28;20034;-70
2022/05/03 10:05:56;;;;;;;18.63;7.50;;;;;;;25.98;26.00;101817.03;5109088;28;20027;-65
2022/05/03 10:08:23;;;;;;;19.10;7.43;;;;;;;26.10;26.03;101820.13;5111032;28;20541;-65
2022/05/03 10:10:56;;;;;;;18.30;7.05;;;;;;;26.69;25.13;101811.97;5113494;28;20484;-65
2022/05/03 10:13:21;;;;;;;18.85;7.57;;;;;;;27.15;25.00;101806.13;5112809;27;20106;-65
2022/05/03 10:21:30;;;;;;;19.40;7.45;;;;;;;28.66;23.61;101817.16;5098114;28;20047;-66
2022/05/03 10:24:22;;;;;;;;;;;;;;;29.93;23.23;101809.72;5115597;27;20028;-65
2022/05/03 10:27:06;;;;;;;20.02;8.07;;;;;;;30.13;22.79;101807.56;5107200;28;19993;-68
2022/05/03 10:29:35;;;;;;;20.08;7.82;;;;;;;29.46;22.32;101805.28;5110478;28;20031;-66
2022/05/03 10:32:07;;;;;;;20.70;7.05;;;;;;;29.85;22.16;101804.75;5109261;28;20035;-68
2022/05/03 10:35:03;;;;;;;18.60;7.43;;;;;;;30.06;22.58;101798.91;5111371;28;20528;-66
2022/05/03 10:37:29;;;;;;;19.65;6.80;;;;;;;30.28;21.11;101798.41;5110683;28;20119;-70
2022/05/03 10:39:57;;;;;;;18.00;6.90;;;;;;;30.42;20.82;101794.81;5110324;28;20433;-67
2022/05/03 10:42:25;;;;;;;18.35;7.05;;;;;;;29.82;21.87;101795.84;5110569;27;20277;-67
2022/05/03 10:44:53;;;;;;;18.80;6.90;;;;;;;30.07;21.28;101793.38;5112816;28;20020;-69
2022/05/03 10:47:21;;;;;;;17.25;6.22;;;;;;;30.25;20.80;101796.75;5112726;28;20028;-69
2022/05/03 10:50:17;;;;;;;19.45;7.40;;;;;;;30.81;21.23;101795.91;5111952;28;20032;-75
2022/05/03 10:52:54;;;;;;;18.98;7.03;;;;;;;30.94;20.36;101796.81;5110496;28;20381;-70
2022/05/03 10:55:21;;;;;;;19.35;7.40;;;;;;;31.08;21.02;101786.88;5113040;28;20366;-70
2022/05/03 10:58:19;;;;;;;18.27;7.63;;;;;;;32.04;21.07;101781.09;5112122;28;20481;-68
2022/05/03 11:01:11;;;;;;;18.45;7.30;;;;;;;29.86;22.19;101787.41;5109997;28;20057;-67
2022/05/03 11:04:01;;;;;;;20.20;7.20;;;;;;;26.67;25.06;101792.16;5111335;28;20051;-69
2022/05/03 11:06:26;;;;;;;18.52;7.05;;;;;;;25.78;26.11;101782.75;5088537;28;20040;-64
2022/05/03 11:08:57;;;;;;;19.03;7.20;;;;;;;26.98;25.26;101773.53;5089637;28;20590;-66
2022/05/03 11:11:38;;;;;;;18.88;7.60;;;;;;;28.80;23.77;101769.25;5087105;28;20294;-65
2022/05/03 11:14:21;;;;;;;19.23;7.35;;;;;;;30.60;21.83;101776.38;5090077;28;20163;-64
2022/05/03 11:17:12;;;;;;;18.95;6.93;;;;;;;31.65;20.73;101763.84;5087281;28;20032;-67
2022/05/03 11:19:49;;;;;;;19.50;7.30;;;;;;;32.78;20.08;101764.78;5088984;28;20036;-65
2022/05/03 11:22:21;;;;;;;17.95;6.97;;;;;;;30.27;20.69;101768.53;5089943;28;20028;-65
2022/05/03 11:24:49;;;;;;;22.17;7.60;;;;;;;27.87;23.79;101768.91;5089417;28;20135;-65
2022/05/03 11:27:16;;;;;;;19.45;7.60;;;;;;;26.47;25.21;101757.88;5087183;28;20036;-66
2022/05/03 11:29:46;;;;;;;19.80;7.78;;;;;;;25.54;26.65;101755.81;5088726;28;20036;-66
2022/05/03 11:32:12;;;;;;;18.88;8.02;;;;;;;27.02;25.28;101748.88;5089203;28;20059;-66
2022/05/03 11:34:38;;;;;;;19.80;7.50;;;;;;;29.83;22.70;101762.22;5089559;28;20469;-67
2022/05/03 11:37:04;;;;;;;17.85;6.80;;;;;;;31.14;20.85;101756.41;5089060;28;20107;-67
2022/05/03 11:39:30;;;;;;;20.13;7.18;;;;;;;29.45;21.98;101754.53;5088981;28;20056;-65
2022/05/03 11:41:56;;;;;;;21.38;7.10;;;;;;;27.42;24.68;101748.69;5089414;28;20043;-65
2022/05/03 11:44:22;;;;;;;18.98;7.13;;;;;;;26.07;26.08;101744.41;5095008;28;20043;-65
2022/05/03 11:46:48;;;;;;;19.50;7.45;;;;;;;25.46;27.30;101745.34;5108277;28;20035;-66
2022/05/03 11:49:15;;;;;;;22.02;7.72;;;;;;;25.22;28.43;101737.31;5107988;28;20048;-66
2022/05/03 11:57:31;;;;;;;19.60;7.10;;;;;;;25.49;28.03;101736.22;5111423;28;20042;-68
2022/05/03 11:59:58;;;;;;;19.80;6.90;;;;;;;25.66;27.83;101728.22;5108108;28;20409;-68
2022/05/03 12:02:33;;;;;;;18.42;6.93;;;;;;;25.80;27.35;101726.69;5106800;28;20028;-67
2022/05/03 12:05:04;;;;;;;18.48;6.70;;;;;;;26.27;27.04;101727.22;5109624;28;20024;-65
2022/05/03 12:07:36;;;;;;;18.95;7.10;;;;;;;27.82;24.84;101724.84;5107878;28;20023;-66
2022/05/03 12:10:13;;;;;;;17.27;6.47;;;;;;;30.15;22.26;101727.44;5109570;28;20062;-67